createdAt,value
2022-12-05T00:01:35.465Z,68.25
2022-12-05T00:04:05.832Z,71.38
2022-12-05T00:06:35.276Z,72.10
2022-12-05T00:09:03.685Z,71.07
2022-12-05T00:11:35.939Z,75.10
2022-12-05T00:14:05.067Z,69.63
2022-12-05T00:16:34.855Z,70.80
2022-12-05T00:19:03.728Z,72.68
2022-12-05T00:21:34.268Z,70.75
2022-12-05T00:24:03.446Z,66.68
2022-12-05T00:26:33.299Z,71.00
2022-12-05T00:29:01.410Z,63.25
2022-12-05T00:31:29.615Z,70.60
2022-12-05T00:34:00.640Z,69.82
2022-12-05T00:36:31.130Z,74.93
2022-12-05T00:39:01.606Z,68.45
2022-12-05T00:41:30.540Z,65.93
2022-12-05T00:44:02.167Z,68.53
2022-12-05T00:46:32.531Z,70.40
2022-12-05T00:49:02.534Z,66.28
2022-12-05T00:51:32.355Z,66.43
2022-12-05T00:54:02.177Z,63.95
2022-12-05T00:56:32.079Z,68.47
2022-12-05T00:59:02.822Z,70.68
2022-12-05T01:01:33.121Z,67.40
2022-12-05T01:04:03.585Z,75.78
2022-12-05T01:06:33.217Z,68.70
2022-12-05T01:09:01.746Z,62.40
2022-12-05T01:11:29.841Z,92.95
2022-12-05T01:13:58.510Z,67.30
2022-12-05T01:16:30.885Z,63.40
2022-12-05T01:19:00.338Z,73.07
2022-12-05T01:21:28.953Z,75.05
2022-12-05T01:23:57.708Z,79.95
2022-12-05T01:26:26.016Z,89.97
2022-12-05T01:28:54.272Z,88.93
2022-12-05T01:31:25.952Z,90.90
2022-12-05T01:33:57.576Z,104.97
2022-12-05T01:36:26.733Z,110.75
2022-12-05T01:38:55.136Z,129.52
2022-12-05T01:41:25.688Z,90.75
2022-12-05T01:43:58.237Z,90.75
2022-12-05T01:46:28.203Z,85.35
2022-12-05T01:49:02.751Z,82.63
2022-12-05T01:51:31.857Z,78.03
2022-12-05T01:54:00.724Z,79.45
2022-12-05T01:56:29.002Z,81.50
2022-12-05T01:58:57.476Z,115.40
2022-12-05T02:01:25.449Z,101.80
2022-12-05T02:03:58.270Z,127.32
2022-12-05T02:06:28.718Z,167.32
2022-12-05T02:08:57.070Z,131.38
2022-12-05T02:11:27.995Z,153.93
2022-12-05T02:14:11.236Z,149.43
2022-12-05T02:16:51.647Z,138.77
2022-12-05T02:19:51.357Z,134.02
2022-12-05T02:23:03.807Z,113.35
2022-12-05T02:25:55.664Z,117.60
2022-12-05T02:28:57.495Z,85.00
2022-12-05T02:31:31.873Z,98.53
2022-12-05T02:34:06.632Z,100.65
2022-12-05T02:36:41.459Z,124.93
2022-12-05T02:39:18.806Z,114.55
2022-12-05T02:41:52.131Z,103.43
2022-12-05T02:44:30.115Z,115.68
2022-12-05T02:47:01.318Z,151.93
2022-12-05T02:49:33.329Z,88.35
2022-12-05T02:52:03.626Z,105.18
2022-12-05T02:54:37.703Z,133.95
2022-12-05T02:57:06.868Z,99.50
2022-12-05T02:59:35.053Z,137.15
2022-12-05T03:02:05.498Z,157.27
2022-12-05T03:04:34.288Z,131.45
2022-12-05T03:07:07.466Z,91.28
2022-12-05T03:09:38.715Z,119.05
2022-12-05T03:12:13.272Z,161.73
2022-12-05T03:14:47.459Z,94.35
2022-12-05T03:17:23.304Z,101.10
2022-12-05T03:19:58.321Z,85.13
2022-12-05T03:22:32.754Z,78.38
2022-12-05T03:25:01.361Z,103.45
2022-12-05T03:27:36.893Z,100.28
2022-12-05T03:30:08.815Z,74.10
2022-12-05T03:32:44.043Z,102.90
2022-12-05T03:35:19.071Z,74.38
2022-12-05T03:40:27.931Z,98.57
2022-12-05T03:43:02.769Z,109.20
2022-12-05T03:45:37.574Z,96.93
2022-12-05T03:48:14.890Z,83.20
2022-12-05T03:50:45.788Z,76.55
2022-12-05T03:53:20.614Z,83.50
2022-12-05T03:55:57.611Z,66.63
2022-12-05T03:58:30.562Z,68.22
2022-12-05T04:01:02.289Z,61.65
2022-12-05T04:03:40.501Z,64.50
2022-12-05T04:06:15.274Z,71.60
2022-12-05T04:08:48.813Z,45.17
2022-12-05T04:11:20.466Z,49.35
2022-12-05T04:13:51.616Z,51.97
2022-12-05T04:16:56.051Z,67.78
2022-12-05T04:19:29.558Z,58.63
2022-12-05T04:21:57.597Z,60.80
2022-12-05T04:24:47.498Z,58.92
2022-12-05T04:27:29.181Z,55.42
2022-12-05T04:30:04.796Z,60.83
2022-12-05T04:32:41.291Z,45.63
2022-12-05T04:35:16.395Z,53.20
2022-12-05T04:37:49.072Z,51.22
2022-12-05T04:40:23.152Z,52.47
2022-12-05T04:42:54.968Z,57.97
2022-12-05T04:45:25.712Z,56.90
2022-12-05T04:48:00.491Z,53.47
2022-12-05T04:50:33.513Z,48.70
2022-12-05T04:53:03.698Z,57.28
2022-12-05T04:55:34.954Z,49.72
2022-12-05T04:58:08.837Z,59.38
2022-12-05T05:00:45.240Z,54.28
2022-12-05T05:03:20.368Z,54.22
2022-12-05T05:05:53.462Z,50.08
2022-12-05T05:08:23.644Z,53.20
2022-12-05T05:11:05.453Z,45.40
2022-12-05T05:13:33.358Z,52.97
2022-12-05T05:16:01.391Z,54.90
2022-12-05T05:18:29.465Z,55.47
2022-12-05T05:20:58.926Z,66.85
2022-12-05T05:23:27.055Z,53.88
2022-12-05T05:25:55.389Z,49.92
2022-12-05T05:28:23.965Z,45.85
2022-12-05T05:30:52.192Z,52.92
2022-12-05T05:33:20.248Z,48.50
2022-12-05T05:35:48.171Z,46.65
2022-12-05T05:38:17.528Z,51.33
2022-12-05T05:40:45.519Z,48.72
2022-12-05T05:43:13.512Z,47.70
2022-12-05T05:45:41.449Z,54.90
2022-12-05T05:48:09.378Z,54.75
2022-12-05T05:50:38.030Z,55.13
2022-12-05T05:53:06.022Z,51.10
2022-12-05T05:55:35.357Z,49.65
2022-12-05T05:58:03.405Z,47.53
2022-12-05T06:00:31.387Z,48.13
2022-12-05T06:02:59.484Z,45.33
2022-12-05T06:05:27.550Z,77.82
2022-12-05T06:07:55.612Z,74.10
2022-12-05T06:10:23.700Z,73.25
2022-12-05T06:12:52.979Z,58.03
2022-12-05T06:15:20.910Z,56.83
2022-12-05T06:17:48.922Z,69.40
2022-12-05T06:20:17.046Z,67.05
2022-12-05T06:22:45.091Z,59.17
2022-12-05T06:25:13.096Z,56.58
2022-12-05T06:27:41.051Z,60.35
2022-12-05T06:30:11.710Z,72.43
2022-12-05T06:32:39.678Z,74.32
2022-12-05T06:35:15.386Z,71.75
2022-12-05T06:37:43.876Z,62.35
2022-12-05T06:40:13.050Z,59.67
2022-12-05T06:42:41.205Z,53.83
2022-12-05T06:45:11.648Z,56.67
2022-12-05T06:47:39.628Z,51.42
2022-12-05T06:50:09.190Z,49.58
2022-12-05T06:52:37.164Z,49.67
2022-12-05T06:55:05.985Z,49.75
2022-12-05T06:57:34.002Z,48.63
2022-12-05T07:00:15.845Z,55.03
2022-12-05T07:02:45.306Z,49.60
2022-12-05T07:05:13.559Z,60.67
2022-12-05T07:07:41.627Z,50.97
2022-12-05T07:10:09.966Z,52.97
2022-12-05T07:12:37.936Z,46.47
2022-12-05T07:15:06.740Z,49.53
2022-12-05T07:17:37.435Z,52.75
2022-12-05T07:20:08.371Z,52.15
2022-12-05T07:22:37.799Z,49.80
2022-12-05T07:25:06.455Z,46.60
2022-12-05T07:27:34.893Z,42.08
2022-12-05T07:30:02.930Z,43.58
2022-12-05T07:32:34.485Z,43.28
2022-12-05T07:35:02.534Z,45.28
2022-12-05T07:37:31.993Z,41.83
2022-12-05T07:40:00.233Z,43.42
2022-12-05T07:42:28.535Z,44.83
2022-12-05T07:44:56.460Z,44.38
2022-12-05T07:47:24.537Z,41.42
2022-12-05T07:49:52.571Z,45.00
2022-12-05T07:52:20.586Z,40.85
2022-12-05T07:54:49.913Z,44.83
2022-12-05T07:57:17.993Z,58.08
2022-12-05T07:59:46.147Z,49.15
2022-12-05T08:02:14.194Z,41.05
2022-12-05T08:04:42.226Z,42.08
2022-12-05T08:07:12.139Z,44.72
2022-12-05T08:09:40.215Z,52.65
2022-12-05T08:12:10.067Z,44.55
2022-12-05T08:14:38.123Z,42.80
2022-12-05T08:17:06.163Z,45.35
2022-12-05T08:19:34.289Z,48.63
2022-12-05T08:22:02.350Z,45.75
2022-12-05T08:24:30.514Z,46.08
2022-12-05T08:26:58.864Z,47.80
2022-12-05T08:29:28.355Z,45.08
2022-12-05T08:31:56.446Z,44.97
2022-12-05T08:34:24.356Z,39.70
2022-12-05T08:36:52.355Z,42.92
2022-12-05T08:39:20.997Z,41.30
2022-12-05T08:41:50.031Z,41.40
2022-12-05T08:44:19.053Z,42.63
2022-12-05T08:46:50.094Z,49.13
2022-12-05T08:49:18.530Z,48.25
2022-12-05T08:51:46.601Z,50.15
2022-12-05T08:54:14.876Z,50.08
2022-12-05T08:56:42.905Z,46.28
2022-12-05T08:59:10.905Z,43.85
2022-12-05T09:01:40.530Z,41.42
2022-12-05T09:04:10.058Z,40.95
2022-12-05T09:06:39.349Z,37.72
2022-12-05T09:09:11.446Z,37.45
2022-12-05T09:11:44.154Z,33.45
2022-12-05T09:14:12.127Z,29.95
2022-12-05T09:16:40.638Z,30.73
2022-12-05T09:19:14.530Z,32.03
2022-12-05T09:21:43.190Z,34.00
2022-12-05T09:24:12.808Z,32.83
2022-12-05T09:26:41.954Z,27.65
2022-12-05T09:29:16.248Z,27.55
2022-12-05T09:31:46.306Z,26.55
2022-12-05T09:34:18.050Z,28.42
2022-12-05T09:36:46.347Z,27.88
2022-12-05T09:39:14.294Z,31.83
2022-12-05T09:42:08.241Z,28.15
2022-12-05T09:44:51.929Z,23.77
2022-12-05T09:47:35.620Z,25.02
2022-12-05T09:50:14.780Z,26.17
2022-12-05T09:52:50.188Z,25.98
2022-12-05T09:55:20.202Z,22.50
2022-12-05T09:57:53.123Z,22.63
2022-12-05T10:00:21.932Z,23.23
2022-12-05T10:02:59.770Z,17.63
2022-12-05T10:05:38.913Z,17.08
2022-12-05T10:08:19.034Z,18.45
2022-12-05T10:10:55.862Z,17.73
2022-12-05T10:13:42.417Z,18.23
2022-12-05T10:16:14.423Z,19.33
2022-12-05T10:18:46.654Z,18.58
2022-12-05T10:21:22.681Z,23.02
2022-12-05T10:23:58.655Z,17.83
2022-12-05T10:26:30.958Z,18.45
2022-12-05T10:29:04.454Z,16.90
2022-12-05T10:31:37.019Z,16.27
2022-12-05T10:34:11.641Z,16.65
2022-12-05T10:36:41.977Z,18.45
2022-12-05T10:39:11.757Z,23.20
2022-12-05T10:41:42.534Z,20.55
2022-12-05T10:44:11.897Z,20.00
2022-12-05T10:46:40.013Z,23.38
2022-12-05T10:49:13.045Z,23.52
2022-12-05T10:51:46.219Z,22.67
2022-12-05T10:54:21.991Z,22.08
2022-12-05T10:56:52.099Z,23.70
2022-12-05T10:59:22.236Z,23.17
2022-12-05T11:01:53.628Z,19.65
2022-12-05T11:04:26.655Z,19.48
2022-12-05T11:06:59.746Z,20.17
2022-12-05T11:09:29.249Z,21.85
2022-12-05T11:12:17.093Z,22.15
2022-12-05T11:14:59.386Z,33.13
2022-12-05T11:17:31.615Z,18.08
2022-12-05T11:19:59.738Z,18.70
2022-12-05T11:22:36.845Z,19.33
2022-12-05T11:25:25.826Z,23.65
2022-12-05T11:27:57.152Z,21.27
2022-12-05T11:33:12.885Z,18.52
2022-12-05T11:35:41.858Z,17.85
2022-12-05T11:38:13.506Z,17.98
2022-12-05T11:40:54.569Z,16.33
2022-12-05T11:43:44.878Z,17.00
2022-12-05T11:46:26.410Z,14.23
2022-12-05T11:49:13.317Z,11.30
2022-12-05T11:51:46.143Z,12.10
2022-12-05T11:55:04.469Z,12.25
2022-12-05T11:57:52.321Z,11.13
2022-12-05T12:00:24.875Z,12.52
2022-12-05T12:03:19.726Z,14.75
2022-12-05T12:06:01.547Z,18.50
2022-12-05T12:08:31.794Z,16.65
2022-12-05T12:11:12.132Z,13.77
2022-12-05T12:13:57.416Z,15.65
2022-12-05T12:16:36.410Z,16.60
2022-12-05T12:19:18.868Z,15.90
2022-12-05T12:22:04.957Z,14.07
2022-12-05T12:24:43.787Z,16.92
2022-12-05T12:27:26.840Z,16.58
2022-12-05T12:30:03.391Z,16.27
2022-12-05T12:32:40.110Z,17.58
2022-12-05T12:35:29.330Z,17.73
2022-12-05T12:38:21.653Z,17.83
2022-12-05T12:40:53.039Z,17.38
2022-12-05T12:43:54.355Z,18.10
2022-12-05T12:46:38.217Z,19.08
2022-12-05T12:49:24.304Z,17.77
2022-12-05T12:51:57.985Z,19.92
2022-12-05T12:55:13.969Z,17.85
2022-12-05T12:57:41.221Z,17.85
2022-12-05T13:00:23.155Z,17.90
2022-12-05T13:02:56.215Z,21.50
2022-12-05T13:05:31.673Z,20.40
2022-12-05T13:08:04.274Z,18.30
2022-12-05T13:10:36.659Z,18.65
2022-12-05T13:13:07.684Z,25.13
2022-12-05T13:15:41.977Z,24.65
2022-12-05T13:18:17.240Z,26.30
2022-12-05T13:20:47.842Z,33.08
2022-12-05T13:23:18.798Z,23.83
2022-12-05T13:25:48.871Z,23.55
2022-12-05T13:28:28.083Z,26.88
2022-12-05T13:31:02.468Z,28.40
2022-12-05T13:33:36.471Z,46.40
2022-12-05T13:36:25.389Z,28.73
2022-12-05T13:39:16.262Z,28.67
2022-12-05T13:42:04.187Z,55.05
2022-12-05T13:44:40.670Z,59.38
2022-12-05T13:47:25.108Z,38.80
2022-12-05T13:49:58.276Z,63.27
2022-12-05T13:52:31.150Z,101.32
2022-12-05T13:55:03.983Z,55.53
2022-12-05T13:57:51.460Z,81.50
2022-12-05T14:00:34.696Z,77.35
2022-12-05T14:03:07.327Z,52.65
2022-12-05T14:05:42.269Z,63.00
2022-12-05T14:11:15.107Z,52.10
2022-12-05T14:13:45.256Z,38.70
2022-12-05T14:16:46.208Z,29.77
2022-12-05T14:19:53.893Z,44.25
2022-12-05T14:22:46.796Z,35.20
2022-12-05T14:25:30.089Z,31.80
2022-12-05T14:28:04.571Z,62.67
2022-12-05T14:30:45.643Z,62.90
2022-12-05T14:33:17.262Z,35.30
2022-12-05T14:35:51.495Z,32.97
2022-12-05T14:38:24.860Z,28.85
2022-12-05T14:40:53.442Z,24.15
2022-12-05T14:43:28.168Z,23.23
2022-12-05T14:46:01.005Z,33.70
2022-12-05T14:48:33.110Z,44.42
2022-12-05T14:51:02.792Z,43.72
2022-12-05T14:53:38.507Z,29.23
2022-12-05T14:56:14.145Z,26.30
2022-12-05T14:58:48.703Z,23.25
2022-12-05T15:01:21.115Z,23.20
2022-12-05T15:04:19.270Z,21.77
2022-12-05T15:06:54.874Z,25.90
2022-12-05T15:09:41.217Z,32.28
2022-12-05T15:12:15.958Z,31.48
2022-12-05T15:14:53.785Z,31.83
2022-12-05T15:17:26.924Z,31.50
2022-12-05T15:20:03.914Z,29.38
2022-12-05T15:22:38.643Z,33.58
2022-12-05T15:25:30.538Z,58.97
2022-12-05T15:28:04.712Z,67.50
2022-12-05T15:30:36.075Z,61.17
2022-12-05T15:33:04.363Z,51.20
2022-12-05T15:35:34.908Z,51.75
2022-12-05T15:38:10.620Z,47.63
2022-12-05T15:40:38.648Z,50.55
2022-12-05T15:43:28.440Z,69.38
2022-12-05T15:46:23.943Z,69.70
2022-12-05T15:48:52.960Z,67.95
2022-12-05T15:51:23.719Z,58.10
2022-12-05T15:53:56.111Z,55.58
2022-12-05T15:56:28.888Z,86.03
2022-12-05T15:59:05.660Z,74.68
2022-12-05T16:01:39.931Z,101.47
2022-12-05T16:04:16.959Z,109.07
2022-12-05T16:06:49.488Z,109.20
2022-12-05T16:09:21.269Z,77.43
2022-12-05T16:11:54.941Z,74.38
2022-12-05T16:14:57.870Z,82.97
2022-12-05T16:17:17.298Z,75.97
2022-12-05T16:19:45.983Z,61.80
2022-12-05T16:22:22.470Z,40.78
2022-12-05T16:25:00.470Z,38.17
2022-12-05T16:27:31.039Z,37.92
2022-12-05T16:30:11.063Z,42.28
2022-12-05T16:32:39.899Z,43.05
2022-12-05T16:35:38.787Z,50.78
2022-12-05T16:38:19.576Z,53.30
2022-12-05T16:41:01.021Z,49.83
2022-12-05T16:43:43.200Z,57.42
2022-12-05T16:46:53.452Z,48.45
2022-12-05T16:49:32.843Z,38.05
2022-12-05T16:52:02.488Z,28.60
2022-12-05T16:54:30.641Z,35.63
2022-12-05T16:57:01.589Z,27.35
2022-12-05T16:59:34.062Z,27.10
2022-12-05T17:02:03.318Z,37.00
2022-12-05T17:04:31.547Z,26.35
2022-12-05T17:06:59.639Z,24.88
2022-12-05T17:09:27.863Z,26.08
2022-12-05T17:12:08.297Z,28.52
2022-12-05T17:14:36.240Z,26.17
2022-12-05T17:17:05.951Z,28.77
2022-12-05T17:19:35.137Z,32.75
2022-12-05T17:22:03.119Z,27.65
2022-12-05T17:24:31.125Z,29.25
2022-12-05T17:26:59.727Z,24.55
2022-12-05T17:29:35.259Z,24.95
2022-12-05T17:32:03.852Z,25.67
2022-12-05T17:34:32.113Z,26.60
2022-12-05T17:37:00.287Z,27.33
2022-12-05T17:39:29.174Z,30.52
2022-12-05T17:41:57.250Z,33.30
2022-12-05T17:44:25.514Z,32.80
2022-12-05T17:46:55.247Z,26.60
2022-12-05T17:49:23.291Z,27.23
2022-12-05T17:52:20.547Z,26.13
2022-12-05T17:54:41.921Z,26.70
2022-12-05T17:57:09.920Z,27.85
2022-12-05T17:59:38.268Z,29.98
2022-12-05T18:02:07.945Z,32.90
2022-12-05T18:04:36.829Z,30.80
2022-12-05T18:07:05.075Z,29.60
2022-12-05T18:09:33.077Z,31.85
2022-12-05T18:12:01.013Z,34.03
2022-12-05T18:14:29.054Z,35.72
2022-12-05T18:16:57.151Z,34.95
2022-12-05T18:19:26.506Z,42.72
2022-12-05T18:21:54.595Z,46.25
2022-12-05T18:24:22.688Z,36.22
2022-12-05T18:26:50.768Z,36.97
2022-12-05T18:29:18.847Z,39.33
2022-12-05T18:31:48.357Z,31.42
2022-12-05T18:34:16.594Z,31.13
2022-12-05T18:36:46.024Z,36.58
2022-12-05T18:39:15.133Z,38.25
2022-12-05T18:41:43.243Z,31.70
2022-12-05T18:44:11.216Z,37.40
2022-12-05T18:46:39.177Z,38.03
2022-12-05T18:49:08.052Z,31.55
2022-12-05T18:51:35.974Z,34.28
2022-12-05T18:54:05.581Z,140.98
2022-12-05T18:56:35.845Z,34.50
2022-12-05T18:59:05.334Z,28.95
2022-12-05T19:01:34.757Z,32.90
2022-12-05T19:04:04.058Z,47.97
2022-12-05T19:06:33.995Z,39.38
2022-12-05T19:09:04.642Z,46.38
2022-12-05T19:11:34.463Z,35.05
2022-12-05T19:14:05.406Z,41.10
2022-12-05T19:16:35.148Z,45.90
2022-12-05T19:19:05.815Z,35.15
2022-12-05T19:21:35.052Z,42.63
2022-12-05T19:24:04.124Z,55.20
2022-12-05T19:26:33.977Z,47.75
2022-12-05T19:29:02.173Z,43.13
2022-12-05T19:31:30.716Z,41.50
2022-12-05T19:34:02.106Z,41.00
2022-12-05T19:36:31.705Z,41.97
2022-12-05T19:39:00.497Z,45.95
2022-12-05T19:41:30.622Z,50.25
2022-12-05T19:44:01.930Z,45.58
2022-12-05T19:46:33.051Z,44.40
2022-12-05T19:49:02.614Z,46.00
2022-12-05T19:51:31.228Z,46.00
2022-12-05T19:54:02.131Z,45.72
2022-12-05T19:56:32.404Z,48.50
2022-12-05T19:59:02.062Z,46.38
2022-12-05T20:01:32.099Z,45.78
2022-12-05T20:04:02.258Z,52.60
2022-12-05T20:06:32.624Z,51.03
2022-12-05T20:09:01.956Z,52.63
2022-12-05T20:11:31.366Z,52.78
2022-12-05T20:14:03.171Z,53.28
2022-12-05T20:16:31.400Z,52.53
2022-12-05T20:19:00.233Z,41.00
2022-12-05T20:21:30.606Z,39.35
2022-12-05T20:24:00.775Z,43.22
2022-12-05T20:26:30.041Z,52.50
2022-12-05T20:29:00.083Z,54.10
2022-12-05T20:31:31.248Z,51.20
2022-12-05T20:33:59.281Z,51.97
2022-12-05T20:36:28.911Z,62.80
2022-12-05T20:38:58.075Z,51.70
2022-12-05T20:41:26.747Z,50.30
2022-12-05T20:43:56.466Z,49.70
2022-12-05T20:46:25.410Z,53.78
2022-12-05T20:48:56.417Z,53.40
2022-12-05T20:51:27.041Z,61.35
2022-12-05T20:53:55.592Z,59.42
2022-12-05T20:56:29.101Z,57.22
2022-12-05T20:59:00.271Z,52.13
2022-12-05T21:01:29.631Z,57.25
2022-12-05T21:03:59.164Z,57.28
2022-12-05T21:06:28.930Z,51.45
2022-12-05T21:08:58.219Z,52.70
2022-12-05T21:11:27.479Z,50.15
2022-12-05T21:13:57.567Z,48.95
2022-12-05T21:16:25.910Z,52.95
2022-12-05T21:18:55.527Z,56.22
2022-12-05T21:21:27.064Z,59.28
2022-12-05T21:23:56.465Z,55.17
2022-12-05T21:26:26.312Z,54.30
2022-12-05T21:28:55.039Z,55.33
2022-12-05T21:31:28.600Z,56.45
2022-12-05T21:33:58.315Z,60.53
2022-12-05T21:36:30.408Z,63.05
2022-12-05T21:38:58.756Z,57.45
2022-12-05T21:41:27.551Z,62.08
2022-12-05T21:43:56.101Z,67.07
2022-12-05T21:46:24.576Z,66.75
2022-12-05T21:48:52.833Z,68.95
2022-12-05T21:51:21.386Z,66.78
2022-12-05T21:53:51.321Z,67.93
2022-12-05T21:56:22.856Z,72.38
2022-12-05T21:58:51.122Z,76.28
2022-12-05T22:01:21.349Z,68.85
2022-12-05T22:03:55.950Z,70.18
2022-12-05T22:06:23.988Z,68.55
2022-12-05T22:08:54.998Z,81.05
2022-12-05T22:11:25.098Z,81.57
2022-12-05T22:13:53.729Z,73.28
2022-12-05T22:16:23.645Z,73.25
2022-12-05T22:18:54.486Z,73.40
2022-12-05T22:21:22.759Z,69.20
2022-12-05T22:23:51.289Z,67.03
2022-12-05T22:26:22.656Z,66.60
2022-12-05T22:28:51.570Z,61.83
2022-12-05T22:31:20.537Z,73.78
2022-12-05T22:33:49.069Z,63.90
2022-12-05T22:36:18.486Z,60.05
2022-12-05T22:38:48.069Z,62.95
2022-12-05T22:41:18.008Z,55.28
2022-12-05T22:43:49.254Z,57.35
2022-12-05T22:46:19.813Z,55.58
2022-12-05T22:48:49.384Z,62.78
2022-12-05T22:51:18.397Z,58.38
2022-12-05T22:53:46.501Z,60.00
2022-12-05T22:56:16.261Z,61.78
2022-12-05T22:58:45.017Z,70.57
2022-12-05T23:01:16.478Z,70.18
2022-12-05T23:03:46.048Z,73.15
2022-12-05T23:06:15.592Z,75.88
2022-12-05T23:08:45.371Z,72.10
2022-12-05T23:11:13.571Z,75.07
2022-12-05T23:13:41.573Z,71.32
2022-12-05T23:16:11.510Z,69.50
2022-12-05T23:18:47.788Z,72.97
2022-12-05T23:21:18.215Z,69.60
2022-12-05T23:23:46.685Z,76.95
2022-12-05T23:26:15.306Z,87.68
2022-12-05T23:28:43.390Z,80.80
2022-12-05T23:31:12.825Z,69.72
2022-12-05T23:33:42.382Z,80.32
2022-12-05T23:36:11.442Z,80.78
2022-12-05T23:38:41.214Z,65.13
2022-12-05T23:41:12.725Z,63.83
2022-12-05T23:43:41.433Z,63.47
2022-12-05T23:46:09.849Z,68.95
2022-12-05T23:48:37.933Z,67.97
2022-12-05T23:51:10.090Z,67.60
2022-12-05T23:53:40.315Z,72.82
2022-12-05T23:56:10.304Z,83.85
2022-12-05T23:58:38.659Z,104.88
